Sacramento, California
Traffic Map
Current Weather Conditions
Sacramento, California
Clear
Clear
84°
Feels Like: 84°
Wind Chill: 84° Ceiling: Unl
Heat Index: 84° Visibility: 10mi
Dew Point: 49° Wind: 0mph
Humidity: 29% Direction: ° ()
Pressure: 29.88in Gusts: 0mph
Raw Report DataKSAC 032353Z 00000KT 10SM CLR 29/09 A2988 RMK AO2 SLP117 T02890094 10289 20222 58019
Traffic Incident Summary
Active as of:
Severity:
Category:
InformationThere was an issue retrieving the traffic information for this location. Please try a different location or try again shortly.
Advertisements
Track Severe Weather on mobile